Time;durP1;ratioP1;P1;durP2;ratioP2;P2;SDS_P1;SDS_P2;PMS_P1;PMS_P2;Temp;Humidity;BMP_temperature;BMP_pressure;BME280_temperature;BME280_humidity;BME280_pressure;Samples;Min_cycle;Max_cycle;Signal;HPM_P1;HPM_P2
2024/03/30 00:00:55;;;;;;;2.47;1.20;;;;;;;;;;5135587;28;19908;-60
2024/03/30 00:03:21;;;;;;;1.13;0.90;;;;;;;;;;5132687;28;20031;-57
2024/03/30 00:05:46;;;;;;;2.05;0.93;;;;;;;;;;5125561;28;20043;-59
2024/03/30 00:08:12;;;;;;;1.10;0.90;;;;;;;;;;5136679;28;20051;-59
2024/03/30 00:10:41;;;;;;;1.65;1.10;;;;;;;;;;5136403;28;20264;-57
2024/03/30 00:13:10;;;;;;;1.47;1.00;;;;;;;;;;5128648;28;20035;-59
2024/03/30 00:15:35;;;;;;;4.63;1.07;;;;;;;;;;5136561;28;20268;-55
2024/03/30 00:18:01;;;;;;;2.60;1.15;;;;;;;;;;5132331;28;20256;-58
2024/03/30 00:20:27;;;;;;;3.45;1.38;;;;;;;;;;5135695;28;20039;-59
2024/03/30 00:22:52;;;;;;;3.67;1.10;;;;;;;;;;5135627;28;20057;-59
2024/03/30 00:25:18;;;;;;;1.92;0.82;;;;;;;;;;5131046;28;20051;-59
2024/03/30 00:27:44;;;;;;;1.40;1.13;;;;;;;;;;5135583;28;20024;-58
2024/03/30 00:30:09;;;;;;;2.53;1.17;;;;;;;;;;5136246;28;20024;-58
2024/03/30 00:32:35;;;;;;;1.83;0.88;;;;;;;;;;5131459;28;20035;-59
2024/03/30 00:35:00;;;;;;;1.87;1.10;;;;;;;;;;5136052;28;20028;-59
2024/03/30 00:37:26;;;;;;;0.98;0.82;;;;;;;;;;5135926;28;20282;-60
2024/03/30 00:39:51;;;;;;;5.93;0.90;;;;;;;;;;5132002;28;20054;-59
2024/03/30 00:42:17;;;;;;;1.20;0.80;;;;;;;;;;5132362;28;20039;-59
2024/03/30 00:44:42;;;;;;;1.52;0.85;;;;;;;;;;5131231;28;20035;-57
2024/03/30 00:47:08;;;;;;;0.93;0.80;;;;;;;;;;5134705;28;20032;-58
2024/03/30 00:49:33;;;;;;;3.20;0.90;;;;;;;;;;5131363;28;20036;-57
2024/03/30 00:51:59;;;;;;;2.53;1.02;;;;;;;;;;5131489;28;20319;-59
2024/03/30 00:54:24;;;;;;;1.95;1.20;;;;;;;;;;5127799;28;20066;-58
2024/03/30 00:56:50;;;;;;;3.55;1.25;;;;;;;;;;5134990;28;20106;-60
2024/03/30 00:59:16;;;;;;;16.20;1.70;;;;;;;;;;5095975;28;1130913;-59
2024/03/30 01:01:41;;;;;;;2.95;1.15;;;;;;;;;;5134568;28;20036;-59
2024/03/30 01:04:06;;;;;;;1.57;1.00;;;;;;;;;;5132696;28;20060;-60
2024/03/30 01:06:32;;;;;;;2.97;1.00;;;;;;;;;;5131261;28;20035;-60
2024/03/30 01:08:57;;;;;;;1.67;1.10;;;;;;;;;;5136716;28;20275;-60
2024/03/30 01:11:24;;;;;;;1.30;0.90;;;;;;;;;;5136232;28;20032;-59
2024/03/30 01:13:50;;;;;;;2.50;1.63;;;;;;;;;;5133021;28;20031;-58
2024/03/30 01:16:16;;;;;;;7.68;1.55;;;;;;;;;;5131567;28;20272;-59
2024/03/30 01:18:41;;;;;;;1.85;1.20;;;;;;;;;;5136420;28;20048;-59
2024/03/30 01:21:07;;;;;;;4.03;0.90;;;;;;;;;;5136132;28;20152;-59
2024/03/30 01:23:32;;;;;;;2.05;1.50;;;;;;;;;;5133483;28;20040;-61
2024/03/30 01:25:58;;;;;;;3.17;1.43;;;;;;;;;;5135935;28;20039;-58
2024/03/30 01:28:27;;;;;;;2.60;1.45;;;;;;;;;;5136115;28;20267;-58
2024/03/30 01:30:53;;;;;;;1.93;1.30;;;;;;;;;;5135813;28;20035;-58
2024/03/30 01:33:18;;;;;;;4.03;2.10;;;;;;;;;;5134526;28;20283;-59
2024/03/30 01:35:43;;;;;;;2.23;1.63;;;;;;;;;;5134026;28;20024;-58
2024/03/30 01:38:09;;;;;;;3.00;2.10;;;;;;;;;;5135952;28;20095;-59
2024/03/30 01:40:34;;;;;;;2.10;1.40;;;;;;;;;;5135364;28;20028;-60
2024/03/30 01:43:03;;;;;;;2.60;1.40;;;;;;;;;;5134362;28;20032;-59
2024/03/30 01:45:32;;;;;;;1.90;1.40;;;;;;;;;;5135739;28;20066;-59
2024/03/30 01:47:57;;;;;;;2.23;1.57;;;;;;;;;;5134053;28;20284;-60
2024/03/30 01:50:24;;;;;;;2.72;1.70;;;;;;;;;;5134768;28;20297;-58
2024/03/30 01:52:49;;;;;;;2.80;1.77;;;;;;;;;;5133291;28;20036;-59
2024/03/30 01:55:15;;;;;;;5.25;1.80;;;;;;;;;;5126977;28;20288;-59
2024/03/30 01:57:41;;;;;;;2.95;1.80;;;;;;;;;;5109510;28;20131;-59
2024/03/30 02:00:07;;;;;;;2.83;1.70;;;;;;;;;;5114746;28;20027;-60
2024/03/30 02:02:32;;;;;;;3.63;1.67;;;;;;;;;;5130671;28;20443;-58
2024/03/30 02:04:58;;;;;;;5.30;2.23;;;;;;;;;;5135216;28;20035;-59
2024/03/30 02:07:23;;;;;;;3.42;2.00;;;;;;;;;;5130042;28;20054;-60
2024/03/30 02:09:49;;;;;;;2.38;1.70;;;;;;;;;;5135062;28;20067;-60
2024/03/30 02:12:14;;;;;;;2.42;1.80;;;;;;;;;;5132460;28;20061;-59
2024/03/30 02:14:41;;;;;;;3.27;2.03;;;;;;;;;;5135288;28;20077;-60
2024/03/30 02:17:06;;;;;;;3.83;2.20;;;;;;;;;;5132215;28;20038;-59
2024/03/30 02:19:34;;;;;;;3.50;1.90;;;;;;;;;;5130303;28;20038;-59
2024/03/30 02:22:00;;;;;;;4.53;1.73;;;;;;;;;;5134304;28;20055;-61
2024/03/30 02:24:25;;;;;;;2.97;1.77;;;;;;;;;;5133182;28;20278;-61
2024/03/30 02:26:51;;;;;;;11.80;2.13;;;;;;;;;;5134796;28;20260;-62
2024/03/30 02:29:17;;;;;;;14.13;2.50;;;;;;;;;;5128805;28;20284;-61
2024/03/30 02:31:43;;;;;;;17.43;2.40;;;;;;;;;;5134611;28;20047;-60
2024/03/30 02:34:08;;;;;;;2.93;2.20;;;;;;;;;;5133003;28;20279;-60
2024/03/30 02:36:33;;;;;;;4.33;2.07;;;;;;;;;;5124480;28;20030;-60
2024/03/30 02:38:59;;;;;;;5.20;2.60;;;;;;;;;;5134689;28;20031;-60
2024/03/30 02:41:24;;;;;;;8.73;4.35;;;;;;;;;;5134872;28;20055;-61
2024/03/30 02:43:53;;;;;;;8.00;4.28;;;;;;;;;;5134538;28;20041;-61
2024/03/30 02:46:19;;;;;;;8.60;3.13;;;;;;;;;;5126926;28;20051;-61
2024/03/30 02:48:44;;;;;;;9.87;4.00;;;;;;;;;;5134745;28;20256;-60
2024/03/30 02:51:10;;;;;;;5.33;3.50;;;;;;;;;;5134216;28;20288;-61
2024/03/30 02:53:35;;;;;;;10.30;4.27;;;;;;;;;;5126086;28;20344;-59
2024/03/30 02:56:01;;;;;;;6.22;3.75;;;;;;;;;;5129707;28;20267;-60
2024/03/30 02:58:26;;;;;;;8.00;3.53;;;;;;;;;;5124605;28;20044;-59
2024/03/30 03:00:52;;;;;;;13.32;5.70;;;;;;;;;;5135039;28;20043;-60
2024/03/30 03:03:17;;;;;;;5.70;3.78;;;;;;;;;;5133298;28;20046;-60
2024/03/30 03:05:42;;;;;;;6.30;3.30;;;;;;;;;;5134896;28;20063;-59
2024/03/30 03:08:08;;;;;;;9.10;3.60;;;;;;;;;;5134655;28;20057;-60
2024/03/30 03:10:33;;;;;;;7.13;3.27;;;;;;;;;;5133708;28;20027;-60
2024/03/30 03:12:58;;;;;;;14.43;3.63;;;;;;;;;;5132864;28;20087;-60
2024/03/30 03:15:23;;;;;;;4.50;3.20;;;;;;;;;;5134572;28;20030;-60
2024/03/30 03:17:49;;;;;;;4.67;3.57;;;;;;;;;;5134639;28;20045;-60
2024/03/30 03:20:15;;;;;;;5.47;4.07;;;;;;;;;;5134818;28;20039;-59
2024/03/30 03:22:40;;;;;;;9.60;4.00;;;;;;;;;;5132794;28;20022;-60
2024/03/30 03:25:06;;;;;;;9.73;3.72;;;;;;;;;;5130095;28;20040;-61
2024/03/30 03:27:32;;;;;;;6.43;4.05;;;;;;;;;;5127618;28;20043;-60
2024/03/30 03:29:57;;;;;;;12.47;4.33;;;;;;;;;;5133150;28;20043;-60
2024/03/30 03:32:22;;;;;;;5.83;4.00;;;;;;;;;;5134465;28;20040;-61
2024/03/30 03:34:47;;;;;;;7.43;3.50;;;;;;;;;;5124662;28;20038;-59
2024/03/30 03:37:13;;;;;;;5.43;3.65;;;;;;;;;;5134781;28;20020;-60
2024/03/30 03:39:38;;;;;;;5.82;3.42;;;;;;;;;;5127787;28;20053;-59
2024/03/30 03:42:04;;;;;;;8.00;3.90;;;;;;;;;;5138067;28;20043;-60
2024/03/30 03:44:29;;;;;;;6.28;3.67;;;;;;;;;;5132123;28;20032;-60
2024/03/30 03:46:55;;;;;;;8.68;3.65;;;;;;;;;;5137786;28;20028;-60
2024/03/30 03:49:20;;;;;;;8.77;4.30;;;;;;;;;;5128310;28;20094;-60
2024/03/30 03:51:46;;;;;;;5.88;3.92;;;;;;;;;;5133595;28;20603;-60
2024/03/30 03:54:11;;;;;;;6.17;3.93;;;;;;;;;;5135841;28;20027;-60
2024/03/30 03:56:37;;;;;;;6.83;4.40;;;;;;;;;;5137786;28;20383;-60
2024/03/30 03:59:02;;;;;;;5.17;4.00;;;;;;;;;;5137236;28;20264;-60
2024/03/30 04:01:28;;;;;;;11.27;6.28;;;;;;;;;;5137197;28;20102;-58
2024/03/30 04:03:54;;;;;;;9.05;5.57;;;;;;;;;;5135119;28;20024;-60
2024/03/30 04:06:19;;;;;;;10.48;5.00;;;;;;;;;;5137786;28;20030;-60
2024/03/30 04:08:48;;;;;;;9.23;6.03;;;;;;;;;;5137805;28;20027;-60
2024/03/30 04:11:13;;;;;;;9.40;5.57;;;;;;;;;;5130151;28;20027;-60
2024/03/30 04:13:38;;;;;;;8.33;5.93;;;;;;;;;;5136123;28;20280;-61
2024/03/30 04:16:05;;;;;;;13.52;6.43;;;;;;;;;;5127576;28;20024;-59
2024/03/30 04:18:31;;;;;;;10.20;7.22;;;;;;;;;;5137315;28;20038;-60
2024/03/30 04:20:57;;;;;;;8.20;5.73;;;;;;;;;;5137120;28;20031;-59
2024/03/30 04:23:23;;;;;;;10.40;6.40;;;;;;;;;;5137065;28;20331;-60
2024/03/30 04:25:58;;;;;;;10.13;6.57;;;;;;;;;;5137313;28;20031;-60
2024/03/30 04:28:24;;;;;;;13.10;7.30;;;;;;;;;;5125043;28;20032;-59
2024/03/30 04:30:56;;;;;;;11.63;7.20;;;;;;;;;;5137180;28;20293;-59
2024/03/30 04:33:22;;;;;;;9.93;7.53;;;;;;;;;;5132420;28;20031;-59
2024/03/30 04:35:56;;;;;;;16.38;7.78;;;;;;;;;;5135516;28;20268;-60
2024/03/30 04:38:23;;;;;;;11.87;7.67;;;;;;;;;;5130286;28;20028;-60
2024/03/30 04:40:55;;;;;;;11.38;7.63;;;;;;;;;;5136705;28;20331;-61
2024/03/30 04:43:20;;;;;;;10.10;7.73;;;;;;;;;;5133947;28;20059;-60
2024/03/30 04:45:46;;;;;;;16.57;8.47;;;;;;;;;;5137038;28;20287;-60
2024/03/30 04:48:11;;;;;;;10.93;8.37;;;;;;;;;;5133238;28;20020;-60
2024/03/30 04:50:36;;;;;;;14.63;8.80;;;;;;;;;;5135123;28;20070;-59
2024/03/30 04:53:02;;;;;;;13.43;9.70;;;;;;;;;;5134459;28;20032;-60
2024/03/30 04:55:27;;;;;;;10.77;8.07;;;;;;;;;;5136049;28;20075;-59
2024/03/30 04:57:53;;;;;;;11.85;8.27;;;;;;;;;;5136101;28;20028;-59
2024/03/30 05:00:19;;;;;;;11.50;8.27;;;;;;;;;;5131436;28;20054;-59
2024/03/30 05:02:44;;;;;;;13.47;9.53;;;;;;;;;;5136267;28;20040;-58
2024/03/30 05:05:10;;;;;;;14.83;10.10;;;;;;;;;;5135280;28;20027;-60
2024/03/30 05:07:35;;;;;;;15.90;10.37;;;;;;;;;;5135840;28;20094;-60
2024/03/30 05:10:00;;;;;;;18.73;11.00;;;;;;;;;;5135600;28;20032;-60
2024/03/30 05:12:26;;;;;;;13.85;9.98;;;;;;;;;;5136044;28;20031;-60
2024/03/30 05:14:51;;;;;;;15.03;10.60;;;;;;;;;;5124655;28;20105;-59
2024/03/30 05:17:17;;;;;;;17.80;10.87;;;;;;;;;;5136191;28;20325;-60
2024/03/30 05:22:27;;;;;;;24.13;14.50;;;;;;;;;;5136007;28;20036;-60
2024/03/30 05:24:52;;;;;;;27.27;14.75;;;;;;;;;;5134523;28;20274;-59
2024/03/30 05:27:18;;;;;;;24.17;12.73;;;;;;;;;;5136256;28;20031;-59
2024/03/30 05:29:43;;;;;;;17.33;11.10;;;;;;;;;;5127217;28;20087;-60
2024/03/30 05:32:09;;;;;;;18.70;11.35;;;;;;;;;;5135902;28;20047;-59
2024/03/30 05:34:34;;;;;;;19.40;11.70;;;;;;;;;;5111792;28;20046;-59
2024/03/30 05:37:03;;;;;;;20.48;11.05;;;;;;;;;;5136059;28;20030;-60
2024/03/30 05:39:29;;;;;;;18.23;11.30;;;;;;;;;;5129466;28;20031;-59
2024/03/30 05:41:54;;;;;;;22.52;13.02;;;;;;;;;;5135835;28;20285;-60
2024/03/30 05:44:20;;;;;;;25.80;12.65;;;;;;;;;;5132281;28;20055;-58
2024/03/30 05:46:45;;;;;;;19.10;12.17;;;;;;;;;;5136175;28;20039;-60
2024/03/30 05:49:11;;;;;;;18.30;12.15;;;;;;;;;;5135755;28;20092;-60
2024/03/30 05:51:36;;;;;;;18.23;11.87;;;;;;;;;;5118243;28;20044;-60
2024/03/30 05:54:02;;;;;;;20.52;12.20;;;;;;;;;;5128907;28;20569;-60
2024/03/30 05:56:27;;;;;;;20.52;11.35;;;;;;;;;;5127927;28;20099;-61
2024/03/30 05:58:53;;;;;;;19.27;11.60;;;;;;;;;;5134598;28;20027;-59
2024/03/30 06:01:19;;;;;;;19.50;11.65;;;;;;;;;;5141218;27;20019;-58
2024/03/30 06:03:45;;;;;;;18.55;11.52;;;;;;;;;;5134678;28;20032;-60
2024/03/30 06:06:10;;;;;;;19.33;11.97;;;;;;;;;;5135685;28;20087;-60
2024/03/30 06:08:35;;;;;;;24.17;11.63;;;;;;;;;;5132564;28;20031;-59
2024/03/30 06:11:01;;;;;;;20.13;11.65;;;;;;;;;;5135669;28;20024;-59
2024/03/30 06:13:27;;;;;;;19.77;11.77;;;;;;;;;;5133961;28;20039;-60
2024/03/30 06:16:00;;;;;;;18.70;11.30;;;;;;;;;;5134665;28;20043;-60
2024/03/30 06:18:26;;;;;;;19.50;11.37;;;;;;;;;;5116811;28;20046;-59
2024/03/30 06:20:51;;;;;;;15.83;10.20;;;;;;;;;;5127461;28;20265;-59
2024/03/30 06:23:17;;;;;;;18.17;10.65;;;;;;;;;;5131859;28;20268;-60
2024/03/30 06:25:42;;;;;;;16.00;10.13;;;;;;;;;;5125462;28;20101;-60
2024/03/30 06:28:07;;;;;;;19.10;10.83;;;;;;;;;;5135460;28;20031;-60
2024/03/30 06:30:35;;;;;;;16.60;10.13;;;;;;;;;;5135002;28;20027;-60
2024/03/30 06:33:00;;;;;;;18.47;9.93;;;;;;;;;;5135199;28;20067;-59
2024/03/30 06:35:26;;;;;;;17.10;10.63;;;;;;;;;;5134622;28;20840;-58
2024/03/30 06:37:51;;;;;;;16.95;9.80;;;;;;;;;;5135289;28;20039;-60
2024/03/30 06:45:53;;;;;;;14.53;8.90;;;;;;;;;;5096263;28;20297;-60
2024/03/30 06:48:19;;;;;;;15.73;9.07;;;;;;;;;;5117152;28;20264;-60
2024/03/30 06:50:44;;;;;;;15.37;9.40;;;;;;;;;;5135008;28;20031;-59
2024/03/30 06:53:10;;;;;;;18.88;9.55;;;;;;;;;;5135018;28;20032;-59
2024/03/30 06:55:35;;;;;;;16.73;9.87;;;;;;;;;;5124402;28;20103;-58
2024/03/30 06:58:00;;;;;;;14.97;9.17;;;;;;;;;;5135309;28;20032;-59
2024/03/30 07:00:27;;;;;;;15.77;9.40;;;;;;;;;;5134653;28;20028;-61
2024/03/30 07:02:52;;;;;;;15.30;9.27;;;;;;;;;;5117198;28;20039;-61
2024/03/30 07:05:18;;;;;;;17.52;8.93;;;;;;;;;;5127550;28;20107;-60
2024/03/30 07:07:43;;;;;;;13.10;8.73;;;;;;;;;;5135139;28;20039;-60
2024/03/30 07:10:09;;;;;;;12.77;8.60;;;;;;;;;;5132856;28;20404;-60
2024/03/30 07:12:34;;;;;;;13.27;8.07;;;;;;;;;;5135737;28;20042;-59
2024/03/30 07:15:00;;;;;;;12.20;7.53;;;;;;;;;;5138546;28;20049;-59
2024/03/30 07:17:26;;;;;;;13.80;7.80;;;;;;;;;;5138800;28;20036;-60
2024/03/30 07:19:52;;;;;;;10.07;6.87;;;;;;;;;;5136265;28;20445;-59
2024/03/30 07:22:17;;;;;;;9.23;5.40;;;;;;;;;;5138868;28;20308;-60
2024/03/30 07:24:42;;;;;;;10.93;6.57;;;;;;;;;;5135768;28;20042;-60
2024/03/30 07:27:08;;;;;;;8.98;5.88;;;;;;;;;;5138546;28;20050;-60
2024/03/30 07:29:33;;;;;;;7.93;5.40;;;;;;;;;;5138508;28;20036;-59
2024/03/30 07:32:00;;;;;;;9.82;5.38;;;;;;;;;;5136699;28;20051;-59
2024/03/30 07:34:26;;;;;;;10.40;5.13;;;;;;;;;;5136635;28;20026;-61
2024/03/30 07:36:51;;;;;;;7.38;5.22;;;;;;;;;;5120881;28;20252;-60
2024/03/30 07:39:17;;;;;;;8.88;4.95;;;;;;;;;;5137696;28;20032;-59
2024/03/30 07:41:42;;;;;;;8.47;4.80;;;;;;;;;;5138329;28;20043;-60
2024/03/30 07:44:09;;;;;;;10.02;4.63;;;;;;;;;;5133891;28;20050;-59
2024/03/30 07:46:34;;;;;;;8.88;4.95;;;;;;;;;;5136287;28;20051;-60
2024/03/30 07:49:00;;;;;;;8.25;5.80;;;;;;;;;;5136162;28;20028;-59
2024/03/30 07:51:25;;;;;;;9.10;5.47;;;;;;;;;;5118199;28;20046;-59
2024/03/30 07:53:51;;;;;;;9.70;5.60;;;;;;;;;;5114878;28;20039;-59
2024/03/30 07:56:16;;;;;;;10.38;6.28;;;;;;;;;;5133451;28;20032;-60
2024/03/30 07:58:41;;;;;;;11.80;6.20;;;;;;;;;;5137717;28;20032;-60
2024/03/30 08:01:07;;;;;;;9.93;5.70;;;;;;;;;;5138038;28;20054;-61
2024/03/30 08:03:33;;;;;;;10.20;6.13;;;;;;;;;;5137762;28;20043;-60
2024/03/30 08:05:59;;;;;;;13.52;7.45;;;;;;;;;;5131070;28;20030;-60
2024/03/30 08:08:25;;;;;;;12.63;7.10;;;;;;;;;;5137532;28;20034;-59
2024/03/30 08:10:50;;;;;;;12.27;7.20;;;;;;;;;;5138146;28;20032;-61
2024/03/30 08:13:16;;;;;;;11.68;6.95;;;;;;;;;;5137192;28;20046;-61
2024/03/30 08:15:43;;;;;;;14.13;7.07;;;;;;;;;;5133910;28;20016;-60
2024/03/30 08:18:09;;;;;;;14.87;7.30;;;;;;;;;;5119966;28;20066;-60
2024/03/30 08:20:34;;;;;;;12.43;6.95;;;;;;;;;;5137399;28;20264;-59
2024/03/30 08:22:59;;;;;;;15.27;8.80;;;;;;;;;;5137461;28;20057;-60
2024/03/30 08:25:25;;;;;;;15.00;7.63;;;;;;;;;;5135058;28;20035;-59
2024/03/30 08:27:50;;;;;;;12.23;6.80;;;;;;;;;;5136957;28;20031;-59
2024/03/30 08:30:16;;;;;;;14.88;7.93;;;;;;;;;;5137456;28;20027;-60
2024/03/30 08:32:41;;;;;;;12.93;7.13;;;;;;;;;;5136943;28;20066;-60
2024/03/30 08:35:06;;;;;;;12.00;8.03;;;;;;;;;;5134604;28;20467;-60
2024/03/30 08:37:31;;;;;;;13.50;8.43;;;;;;;;;;5136944;28;20027;-61
2024/03/30 08:39:57;;;;;;;12.63;8.02;;;;;;;;;;5129922;28;20052;-60
2024/03/30 08:42:22;;;;;;;12.85;8.10;;;;;;;;;;5135362;28;20055;-60
2024/03/30 08:44:48;;;;;;;14.20;7.97;;;;;;;;;;5131336;28;20039;-59
2024/03/30 08:47:13;;;;;;;20.58;8.43;;;;;;;;;;5133743;28;20023;-59
2024/03/30 08:49:39;;;;;;;14.43;8.82;;;;;;;;;;5132856;28;20028;-59
2024/03/30 08:52:06;;;;;;;14.43;8.77;;;;;;;;;;5133377;28;20049;-60
2024/03/30 08:54:32;;;;;;;16.00;10.07;;;;;;;;;;5133075;28;20889;-60
2024/03/30 08:56:57;;;;;;;16.73;10.53;;;;;;;;;;5132939;28;20300;-61
2024/03/30 08:59:22;;;;;;;15.32;9.48;;;;;;;;;;5124980;28;20095;-61
2024/03/30 09:01:48;;;;;;;16.13;10.13;;;;;;;;;;5132991;28;20036;-60
2024/03/30 09:04:14;;;;;;;;;;;;;;;;;;5130638;28;20051;-60
2024/03/30 09:06:40;;;;;;;16.77;9.70;;;;;;;;;;5135525;28;19919;-60
2024/03/30 09:09:06;;;;;;;17.23;9.63;;;;;;;;;;5136556;28;20095;-59
2024/03/30 09:11:31;;;;;;;15.85;8.95;;;;;;;;;;5116552;28;20026;-60
2024/03/30 09:13:57;;;;;;;11.37;8.87;;;;;;;;;;5136529;28;20050;-60
2024/03/30 09:16:22;;;;;;;14.68;9.05;;;;;;;;;;5122861;28;20032;-61
2024/03/30 09:18:48;;;;;;;15.57;9.20;;;;;;;;;;5136574;28;20035;-59
2024/03/30 09:21:13;;;;;;;13.00;8.63;;;;;;;;;;5123321;28;20035;-60
2024/03/30 09:23:38;;;;;;;13.80;8.93;;;;;;;;;;5136377;28;20061;-60
2024/03/30 09:26:04;;;;;;;11.95;8.63;;;;;;;;;;5126126;28;20056;-60
2024/03/30 09:28:29;;;;;;;12.73;8.20;;;;;;;;;;5136336;28;20099;-60
2024/03/30 09:30:55;;;;;;;13.55;8.32;;;;;;;;;;5126053;28;20064;-60
2024/03/30 09:33:20;;;;;;;15.50;8.98;;;;;;;;;;5135786;28;20036;-59
2024/03/30 09:35:47;;;;;;;15.65;9.02;;;;;;;;;;5126405;28;20024;-60
2024/03/30 09:38:13;;;;;;;14.20;8.70;;;;;;;;;;5136145;28;20039;-59
2024/03/30 09:40:42;;;;;;;18.35;9.60;;;;;;;;;;5127324;28;20031;-59
2024/03/30 09:43:08;;;;;;;12.43;8.47;;;;;;;;;;5131870;28;20045;-59
2024/03/30 09:45:33;;;;;;;12.90;9.07;;;;;;;;;;5129935;28;20043;-60
2024/03/30 09:48:03;;;;;;;15.23;9.63;;;;;;;;;;5135908;28;20069;-60
2024/03/30 09:50:29;;;;;;;13.37;9.13;;;;;;;;;;5131119;28;20083;-60
2024/03/30 09:52:54;;;;;;;;;;;;;;;;;;5136119;28;20028;-59
2024/03/30 09:55:20;;;;;;;13.37;8.93;;;;;;;;;;5134732;28;19922;-60
2024/03/30 09:57:49;;;;;;;15.00;9.50;;;;;;;;;;5135703;28;20030;-60
2024/03/30 10:00:16;;;;;;;12.90;9.27;;;;;;;;;;5135506;28;20019;-60
2024/03/30 10:02:41;;;;;;;14.00;10.02;;;;;;;;;;5135465;28;20074;-60
2024/03/30 10:05:09;;;;;;;13.93;9.07;;;;;;;;;;5132008;28;20093;-60
2024/03/30 10:07:41;;;;;;;15.03;10.07;;;;;;;;;;5125654;28;20024;-59
2024/03/30 10:10:07;;;;;;;13.40;9.57;;;;;;;;;;5121662;28;20035;-60
2024/03/30 10:12:45;;;;;;;15.07;10.18;;;;;;;;;;5135632;28;20035;-60
2024/03/30 10:15:12;;;;;;;15.73;9.77;;;;;;;;;;5129695;28;20028;-59
2024/03/30 10:17:37;;;;;;;14.07;9.10;;;;;;;;;;5128649;28;20032;-60
2024/03/30 10:20:04;;;;;;;13.15;9.23;;;;;;;;;;5131555;28;20023;-60
2024/03/30 10:22:29;;;;;;;14.55;8.88;;;;;;;;;;5134732;28;20039;-60
2024/03/30 10:24:55;;;;;;;13.80;8.85;;;;;;;;;;5133869;28;20042;-59
2024/03/30 10:27:21;;;;;;;14.38;8.63;;;;;;;;;;5133414;28;20076;-59
2024/03/30 10:29:46;;;;;;;17.05;8.73;;;;;;;;;;5135258;28;20035;-60
2024/03/30 10:32:12;;;;;;;15.60;9.05;;;;;;;;;;5125657;28;20036;-59
2024/03/30 10:34:38;;;;;;;15.10;9.18;;;;;;;;;;5116236;28;20043;-60
2024/03/30 10:37:06;;;;;;;14.88;8.98;;;;;;;;;;5134794;28;20028;-60
2024/03/30 10:39:31;;;;;;;19.20;10.73;;;;;;;;;;5132989;28;20034;-59
2024/03/30 10:41:57;;;;;;;14.25;9.75;;;;;;;;;;5110137;28;20028;-60
2024/03/30 10:44:26;;;;;;;12.17;8.43;;;;;;;;;;5135066;28;20031;-59
2024/03/30 10:46:51;;;;;;;14.63;8.23;;;;;;;;;;5128241;28;20035;-58
2024/03/30 10:49:17;;;;;;;;;;;;;;;;;;5134966;28;20042;-60
2024/03/30 10:51:42;;;;;;;17.05;8.90;;;;;;;;;;5134936;28;20055;-59
2024/03/30 10:54:11;;;;;;;12.60;7.80;;;;;;;;;;5139128;28;20053;-60
2024/03/30 10:56:36;;;;;;;15.60;8.03;;;;;;;;;;5127507;28;20036;-60
2024/03/30 10:59:02;;;;;;;14.63;7.67;;;;;;;;;;5138786;28;20023;-59
2024/03/30 11:01:29;;;;;;;18.20;8.23;;;;;;;;;;5136818;28;20070;-60
2024/03/30 11:03:54;;;;;;;12.13;7.30;;;;;;;;;;5139065;28;20032;-59
2024/03/30 11:06:20;;;;;;;11.53;6.70;;;;;;;;;;5127603;28;20067;-60
2024/03/30 11:08:47;;;;;;;14.45;7.57;;;;;;;;;;5138731;28;20028;-60
2024/03/30 11:11:13;;;;;;;12.37;6.53;;;;;;;;;;5138769;28;20024;-60
2024/03/30 11:13:39;;;;;;;10.52;6.95;;;;;;;;;;5138711;28;20058;-59
2024/03/30 11:16:05;;;;;;;11.57;6.68;;;;;;;;;;5133407;28;20074;-60
2024/03/30 11:18:37;;;;;;;14.20;7.82;;;;;;;;;;5138490;28;20023;-59
2024/03/30 11:21:14;;;;;;;11.23;7.40;;;;;;;;;;5132618;28;20024;-60
2024/03/30 11:23:41;;;;;;;13.40;7.20;;;;;;;;;;5134046;28;20054;-60
2024/03/30 11:26:09;;;;;;;15.03;7.30;;;;;;;;;;5133209;28;20046;-59
2024/03/30 11:28:42;;;;;;;13.13;7.23;;;;;;;;;;5138148;28;20057;-61
2024/03/30 11:31:13;;;;;;;17.43;8.27;;;;;;;;;;5137191;28;20083;-60
2024/03/30 11:33:45;;;;;;;14.70;7.73;;;;;;;;;;5136424;28;20192;-60
2024/03/30 11:36:21;;;;;;;14.93;7.83;;;;;;;;;;5136227;28;20023;-60
2024/03/30 11:38:49;;;;;;;15.15;8.60;;;;;;;;;;5137323;28;20023;-60
2024/03/30 11:41:15;;;;;;;22.77;9.07;;;;;;;;;;5138073;28;20095;-60
2024/03/30 11:43:40;;;;;;;19.60;8.57;;;;;;;;;;5137948;28;20053;-60
2024/03/30 11:46:07;;;;;;;14.60;8.13;;;;;;;;;;5131204;28;20036;-60
2024/03/30 11:48:32;;;;;;;17.60;8.98;;;;;;;;;;5132076;28;20038;-60
2024/03/30 11:50:58;;;;;;;14.38;7.60;;;;;;;;;;5129371;28;20024;-61
2024/03/30 11:53:23;;;;;;;15.87;7.40;;;;;;;;;;5120025;28;20057;-61
2024/03/30 11:55:50;;;;;;;19.55;8.02;;;;;;;;;;5115872;28;20039;-60
2024/03/30 11:58:15;;;;;;;;;;;;;;;;;;5123393;28;20020;-60
2024/03/30 12:00:47;;;;;;;20.77;8.53;;;;;;;;;;5136886;28;19943;-60
2024/03/30 12:03:14;;;;;;;15.17;8.27;;;;;;;;;;5137679;28;20036;-60
2024/03/30 12:05:52;;;;;;;21.43;8.17;;;;;;;;;;5137653;28;20036;-59
2024/03/30 12:08:17;;;;;;;24.03;8.43;;;;;;;;;;5134854;28;20039;-60
2024/03/30 12:10:52;;;;;;;28.83;9.38;;;;;;;;;;5137825;28;20040;-60
2024/03/30 12:13:24;;;;;;;19.70;8.50;;;;;;;;;;5137737;28;20096;-62
2024/03/30 12:15:50;;;;;;;21.00;9.33;;;;;;;;;;5137099;28;20028;-60
2024/03/30 12:18:15;;;;;;;27.75;9.75;;;;;;;;;;5129464;28;20035;-60
2024/03/30 12:20:42;;;;;;;30.52;10.13;;;;;;;;;;5129188;28;20057;-60
2024/03/30 12:23:09;;;;;;;24.40;10.17;;;;;;;;;;5137458;28;20032;-61
2024/03/30 12:25:35;;;;;;;27.00;9.53;;;;;;;;;;5135926;28;20083;-60
2024/03/30 12:28:00;;;;;;;24.70;10.20;;;;;;;;;;5105940;28;20047;-60
2024/03/30 12:30:26;;;;;;;23.77;10.10;;;;;;;;;;5135542;28;20031;-60
2024/03/30 12:32:51;;;;;;;20.87;10.13;;;;;;;;;;5136764;28;20105;-61
2024/03/30 12:35:17;;;;;;;29.40;11.02;;;;;;;;;;5126864;28;20493;-60
2024/03/30 12:37:42;;;;;;;25.67;11.63;;;;;;;;;;5117379;28;20028;-60
2024/03/30 12:40:08;;;;;;;21.65;10.63;;;;;;;;;;5136905;28;20252;-61
2024/03/30 12:42:34;;;;;;;22.65;11.27;;;;;;;;;;5128683;28;20104;-60
2024/03/30 12:44:59;;;;;;;22.97;11.20;;;;;;;;;;5137184;28;20035;-60
2024/03/30 12:47:24;;;;;;;29.57;11.47;;;;;;;;;;5134268;28;20047;-60
2024/03/30 12:49:50;;;;;;;21.38;12.57;;;;;;;;;;5136780;28;20031;-60
2024/03/30 12:52:15;;;;;;;22.73;13.43;;;;;;;;;;5135555;28;20072;-59
2024/03/30 12:54:41;;;;;;;23.97;13.63;;;;;;;;;;5128275;28;20070;-60
2024/03/30 12:57:06;;;;;;;23.58;13.25;;;;;;;;;;5126248;28;20020;-60
2024/03/30 12:59:32;;;;;;;23.42;12.85;;;;;;;;;;5135605;28;20032;-61
2024/03/30 13:01:57;;;;;;;23.23;12.57;;;;;;;;;;5136520;28;20059;-60
2024/03/30 13:04:23;;;;;;;17.92;12.15;;;;;;;;;;5136396;28;20260;-60
2024/03/30 13:06:48;;;;;;;22.97;13.60;;;;;;;;;;5133306;28;20034;-60
2024/03/30 13:09:20;;;;;;;21.27;11.63;;;;;;;;;;5136219;28;20020;-60
2024/03/30 13:11:46;;;;;;;19.57;11.80;;;;;;;;;;5134103;28;20019;-60
2024/03/30 13:14:12;;;;;;;21.20;12.23;;;;;;;;;;5136154;28;20095;-60
2024/03/30 13:16:38;;;;;;;19.65;11.85;;;;;;;;;;5129923;28;20031;-59
2024/03/30 13:19:08;;;;;;;20.02;11.15;;;;;;;;;;5132337;28;20091;-60
2024/03/30 13:21:34;;;;;;;16.80;10.30;;;;;;;;;;5135667;28;20030;-60
2024/03/30 13:24:03;;;;;;;20.57;10.93;;;;;;;;;;5131926;28;20023;-60
2024/03/30 13:26:30;;;;;;;17.13;9.17;;;;;;;;;;5134521;28;20048;-58
2024/03/30 13:28:55;;;;;;;18.70;10.70;;;;;;;;;;5135364;28;20284;-60
2024/03/30 13:31:20;;;;;;;15.47;9.40;;;;;;;;;;5136163;28;20289;-60
2024/03/30 13:33:46;;;;;;;16.02;8.35;;;;;;;;;;5135762;28;20042;-60
2024/03/30 13:36:12;;;;;;;13.45;8.15;;;;;;;;;;5135661;28;20100;-59
2024/03/30 13:38:37;;;;;;;12.52;6.95;;;;;;;;;;5129445;28;20023;-59
2024/03/30 13:41:03;;;;;;;12.68;6.85;;;;;;;;;;5125486;28;20023;-60
2024/03/30 13:43:28;;;;;;;10.47;6.00;;;;;;;;;;5135275;28;20105;-60
2024/03/30 13:45:55;;;;;;;8.77;5.43;;;;;;;;;;5135656;28;20027;-60
2024/03/30 13:48:20;;;;;;;8.00;5.32;;;;;;;;;;5125259;28;20065;-60
2024/03/30 13:50:45;;;;;;;7.95;4.93;;;;;;;;;;5135590;28;20023;-60
2024/03/30 13:53:11;;;;;;;13.13;4.60;;;;;;;;;;5129361;28;20118;-60
2024/03/30 13:55:37;;;;;;;6.95;5.18;;;;;;;;;;5134445;28;20226;-60
2024/03/30 13:58:02;;;;;;;7.55;4.78;;;;;;;;;;5129891;28;20028;-60
2024/03/30 14:00:28;;;;;;;8.37;4.70;;;;;;;;;;5127033;28;20043;-60
2024/03/30 14:02:53;;;;;;;9.27;5.00;;;;;;;;;;5130163;28;20267;-61
2024/03/30 14:05:19;;;;;;;7.85;4.80;;;;;;;;;;5134311;28;20287;-60
2024/03/30 14:07:44;;;;;;;7.70;5.20;;;;;;;;;;5127741;28;20057;-60
2024/03/30 14:10:09;;;;;;;8.80;5.57;;;;;;;;;;5123585;28;20092;-60
2024/03/30 14:12:35;;;;;;;8.90;5.60;;;;;;;;;;5115231;28;20032;-60
2024/03/30 14:15:03;;;;;;;11.87;7.70;;;;;;;;;;5120764;28;20034;-61
2024/03/30 14:17:31;;;;;;;11.30;7.57;;;;;;;;;;5126217;28;20024;-60
2024/03/30 14:19:59;;;;;;;17.37;9.57;;;;;;;;;;5131940;28;20263;-60
2024/03/30 14:22:26;;;;;;;14.67;8.33;;;;;;;;;;5132346;28;20259;-62
2024/03/30 14:24:51;;;;;;;14.35;7.65;;;;;;;;;;5135452;28;20335;-61
2024/03/30 14:27:17;;;;;;;19.02;8.63;;;;;;;;;;5128052;28;20043;-62
2024/03/30 14:29:43;;;;;;;18.30;8.48;;;;;;;;;;5114603;28;20060;-61
2024/03/30 14:32:08;;;;;;;21.90;8.18;;;;;;;;;;5114723;28;20036;-61
2024/03/30 14:34:35;;;;;;;12.23;6.90;;;;;;;;;;5115525;28;20044;-61